createdAt,value
2023-04-26T00:00:17.576Z,5.70
2023-04-26T00:05:19.608Z,5.60
2023-04-26T00:10:21.744Z,5.50
2023-04-26T00:15:23.514Z,5.30
2023-04-26T00:20:25.106Z,5.20
2023-04-26T00:25:26.973Z,5.50
2023-04-26T00:30:28.606Z,4.90
2023-04-26T00:35:30.217Z,5.00
2023-04-26T00:40:31.986Z,4.80
2023-04-26T00:45:34.370Z,5.00
2023-04-26T00:50:36.077Z,6.00
2023-04-26T00:55:37.850Z,4.50
2023-04-26T01:00:39.450Z,4.40
2023-04-26T01:05:41.119Z,4.30
2023-04-26T01:10:43.094Z,4.30
2023-04-26T01:15:48.195Z,4.20
2023-04-26T01:20:51.986Z,4.10
2023-04-26T01:25:53.831Z,4.00
2023-04-26T01:30:55.639Z,3.80
2023-04-26T01:35:57.265Z,3.90
2023-04-26T01:40:58.849Z,3.80
2023-04-26T01:46:00.475Z,3.70
2023-04-26T01:51:02.075Z,3.50
2023-04-26T01:56:03.771Z,3.50
2023-04-26T02:01:06.340Z,3.50
2023-04-26T02:06:07.936Z,3.40
2023-04-26T02:11:10.016Z,3.30
2023-04-26T02:16:11.646Z,3.20
2023-04-26T02:21:13.410Z,3.30
2023-04-26T02:26:15.005Z,3.20
2023-04-26T02:31:16.676Z,3.00
2023-04-26T02:36:18.318Z,2.90
2023-04-26T02:41:19.910Z,3.00
2023-04-26T02:46:21.609Z,2.90
2023-04-26T02:51:23.212Z,2.80
2023-04-26T02:56:25.001Z,2.80
2023-04-26T03:01:26.726Z,2.80
2023-04-26T03:06:29.846Z,2.70
2023-04-26T03:11:31.829Z,2.80
2023-04-26T03:16:40.838Z,2.50
2023-04-26T03:21:42.502Z,2.60
2023-04-26T03:26:44.198Z,2.50
2023-04-26T03:31:45.993Z,2.50
2023-04-26T03:36:47.644Z,2.50
2023-04-26T03:41:49.347Z,2.50
2023-04-26T03:46:53.409Z,2.40
2023-04-26T03:51:55.008Z,2.50
2023-04-26T03:56:56.630Z,2.40
2023-04-26T04:01:58.227Z,2.40
2023-04-26T04:06:59.989Z,2.30
2023-04-26T04:12:02.917Z,2.30
2023-04-26T04:17:04.484Z,2.20
2023-04-26T04:22:07.026Z,2.30
2023-04-26T04:27:08.892Z,2.30
2023-04-26T04:32:11.398Z,2.40
2023-04-26T04:37:12.967Z,2.40
2023-04-26T04:42:15.210Z,2.50
2023-04-26T04:47:17.769Z,2.40
2023-04-26T04:52:21.691Z,2.20
2023-04-26T04:57:23.312Z,2.50
2023-04-26T05:02:25.727Z,2.60
2023-04-26T05:07:29.197Z,2.80
2023-04-26T05:12:30.870Z,3.00
2023-04-26T05:17:33.370Z,3.20
2023-04-26T05:22:36.667Z,3.30
2023-04-26T05:27:38.235Z,3.50
2023-04-26T05:32:39.819Z,3.60
2023-04-26T05:37:41.551Z,3.60
2023-04-26T05:42:43.135Z,3.80
2023-04-26T05:47:44.763Z,4.00
2023-04-26T05:52:46.511Z,4.10
2023-04-26T05:57:48.294Z,4.20
2023-04-26T06:02:50.137Z,4.30
2023-04-26T06:07:52.072Z,4.40
2023-04-26T06:12:53.707Z,4.40
2023-04-26T06:17:55.478Z,4.60
2023-04-26T06:22:57.187Z,4.70
2023-04-26T06:27:58.854Z,4.90
2023-04-26T06:33:01.068Z,5.00
2023-04-26T06:38:02.843Z,5.10
2023-04-26T06:43:04.531Z,5.20
2023-04-26T06:48:06.774Z,5.20
2023-04-26T06:53:09.599Z,5.50
2023-04-26T06:58:11.228Z,5.50
2023-04-26T07:03:12.980Z,5.60
2023-04-26T07:08:14.796Z,5.80
2023-04-26T07:13:17.026Z,5.90
2023-04-26T07:18:18.701Z,5.80
2023-04-26T07:23:20.373Z,6.10
2023-04-26T07:28:22.059Z,6.30
2023-04-26T07:33:23.786Z,6.20
2023-04-26T07:38:25.766Z,6.50
2023-04-26T07:43:27.606Z,6.70
2023-04-26T07:48:29.287Z,6.80
2023-04-26T07:53:31.954Z,6.80
2023-04-26T07:58:34.076Z,7.00
2023-04-26T08:03:36.944Z,7.20
2023-04-26T08:08:44.511Z,7.20
2023-04-26T08:13:46.547Z,7.20
2023-04-26T08:18:48.253Z,7.10
2023-04-26T08:23:49.878Z,7.40
2023-04-26T08:28:51.515Z,7.90
2023-04-26T08:33:53.464Z,7.60
2023-04-26T08:38:57.561Z,7.70
2023-04-26T08:43:59.710Z,7.80
2023-04-26T08:49:09.376Z,7.80
2023-04-26T08:54:11.308Z,7.80
2023-04-26T08:59:14.929Z,8.00
2023-04-26T09:04:17.039Z,8.00
2023-04-26T09:09:22.031Z,7.90
2023-04-26T09:14:24.338Z,8.00
2023-04-26T09:19:40.061Z,8.30
2023-04-26T09:24:48.384Z,8.20
2023-04-26T09:30:08.177Z,8.20
2023-04-26T09:35:18.238Z,8.20
2023-04-26T09:40:22.242Z,8.40
2023-04-26T09:45:24.266Z,8.40
2023-04-26T09:50:27.270Z,8.60
2023-04-26T09:55:34.844Z,8.50
2023-04-26T10:00:38.310Z,8.40
2023-04-26T10:05:40.022Z,8.40
2023-04-26T10:10:42.120Z,8.50
2023-04-26T10:15:44.010Z,8.50
2023-04-26T10:20:48.343Z,8.50
2023-04-26T10:25:50.018Z,8.80
2023-04-26T10:31:01.208Z,9.30
2023-04-26T10:36:12.830Z,9.10
2023-04-26T10:41:33.248Z,9.40
2023-04-26T10:46:39.712Z,9.50
2023-04-26T10:51:41.849Z,9.60
2023-04-26T10:56:43.568Z,9.70
2023-04-26T11:01:45.512Z,9.60
2023-04-26T11:06:51.204Z,9.60
2023-04-26T11:11:56.054Z,9.80
2023-04-26T11:16:58.736Z,9.90
2023-04-26T11:22:03.277Z,10.20
2023-04-26T11:27:08.434Z,10.10
2023-04-26T11:32:13.041Z,9.70
2023-04-26T11:37:16.387Z,10.20
2023-04-26T11:42:18.086Z,10.20
2023-04-26T11:47:19.797Z,10.40
2023-04-26T11:52:21.470Z,10.40
2023-04-26T11:57:23.115Z,10.40
2023-04-26T12:02:24.829Z,10.40
2023-04-26T12:07:32.319Z,10.40
2023-04-26T12:12:33.892Z,10.90
2023-04-26T12:17:35.548Z,10.60
2023-04-26T12:22:37.311Z,10.30
2023-04-26T12:27:39.578Z,10.80
2023-04-26T12:32:41.873Z,10.80
2023-04-26T12:37:43.872Z,11.30
2023-04-26T12:42:49.314Z,11.20
2023-04-26T12:47:51.276Z,11.60
2023-04-26T12:52:54.158Z,11.60
2023-04-26T12:57:55.874Z,11.30
2023-04-26T13:02:57.689Z,11.70
2023-04-26T13:08:02.060Z,11.50
2023-04-26T13:13:03.787Z,11.60
2023-04-26T13:18:06.051Z,11.60
2023-04-26T13:23:07.722Z,11.60
2023-04-26T13:28:09.669Z,11.70
2023-04-26T13:33:11.639Z,11.70
2023-04-26T13:38:13.563Z,11.70
2023-04-26T13:43:16.011Z,12.40
2023-04-26T13:48:17.994Z,12.20
2023-04-26T13:53:19.950Z,11.90
2023-04-26T13:58:21.721Z,11.90
2023-04-26T14:03:23.668Z,11.80
2023-04-26T14:08:25.577Z,11.90
2023-04-26T14:13:29.208Z,12.00
2023-04-26T14:18:30.959Z,12.00
2023-04-26T14:23:32.545Z,12.20
2023-04-26T14:28:34.295Z,12.30
2023-04-26T14:33:35.927Z,12.40
2023-04-26T14:38:37.664Z,12.00
2023-04-26T14:43:39.294Z,11.70
2023-04-26T14:48:41.024Z,11.50
2023-04-26T14:53:42.713Z,11.50
2023-04-26T14:58:44.330Z,12.00
2023-04-26T15:03:46.785Z,11.70
2023-04-26T15:08:48.623Z,11.50
2023-04-26T15:13:50.333Z,11.70
2023-04-26T15:18:51.991Z,11.70
2023-04-26T15:23:53.749Z,11.70
2023-04-26T15:28:55.439Z,11.60
2023-04-26T15:33:57.115Z,11.80
2023-04-26T15:38:58.739Z,11.50
2023-04-26T15:44:00.597Z,11.70
2023-04-26T15:49:02.244Z,11.90
2023-04-26T15:54:03.990Z,12.00
2023-04-26T15:59:05.669Z,12.20
2023-04-26T16:04:07.801Z,12.00
2023-04-26T16:09:24.651Z,12.10
2023-04-26T16:14:27.481Z,11.90
2023-04-26T16:19:29.445Z,11.90
2023-04-26T16:24:32.027Z,11.90
2023-04-26T16:29:33.619Z,11.80
2023-04-26T16:34:35.410Z,11.80
2023-04-26T16:39:37.217Z,11.90
2023-04-26T16:44:38.977Z,11.90
2023-04-26T16:49:40.605Z,11.90
2023-04-26T16:54:42.269Z,11.80
2023-04-26T16:59:44.027Z,11.70
2023-04-26T17:04:46.357Z,11.60
2023-04-26T17:09:48.159Z,11.50
2023-04-26T17:14:49.878Z,11.30
2023-04-26T17:19:51.686Z,11.30
2023-04-26T17:24:53.388Z,11.30
2023-04-26T17:29:54.996Z,11.20
2023-04-26T17:34:56.654Z,11.10
2023-04-26T17:39:58.372Z,11.00
2023-04-26T17:45:01.393Z,10.90
2023-04-26T17:50:03.494Z,10.90
2023-04-26T17:55:06.584Z,10.70
2023-04-26T18:00:09.890Z,10.60
2023-04-26T18:05:11.783Z,10.40
2023-04-26T18:10:13.709Z,10.30
2023-04-26T18:15:16.387Z,10.30
2023-04-26T18:20:17.974Z,10.20
2023-04-26T18:25:19.672Z,10.10
2023-04-26T18:30:21.451Z,9.90
2023-04-26T18:35:23.113Z,9.90
2023-04-26T18:40:24.856Z,9.80
2023-04-26T18:45:26.490Z,9.70
2023-04-26T18:50:28.212Z,9.60
2023-04-26T18:55:29.800Z,9.50
2023-04-26T19:00:32.365Z,9.30
2023-04-26T19:05:34.088Z,9.20
2023-04-26T19:10:35.914Z,9.10
2023-04-26T19:15:37.624Z,8.90
2023-04-26T19:20:39.675Z,8.80
2023-04-26T19:25:41.627Z,8.70
2023-04-26T19:30:43.611Z,8.70
2023-04-26T19:35:45.547Z,8.70
2023-04-26T19:40:47.309Z,8.70
2023-04-26T19:45:49.115Z,8.70
2023-04-26T19:50:50.869Z,8.70
2023-04-26T19:55:52.572Z,8.60
2023-04-26T20:00:54.198Z,8.50
2023-04-26T20:05:56.009Z,8.50
2023-04-26T20:11:01.451Z,8.40
2023-04-26T20:16:03.743Z,8.70
2023-04-26T20:21:05.862Z,8.40
2023-04-26T20:26:07.565Z,8.40
2023-04-26T20:31:09.388Z,8.30
2023-04-26T20:36:11.471Z,8.20
2023-04-26T20:41:13.102Z,8.30
2023-04-26T20:46:14.909Z,8.30
2023-04-26T20:51:16.533Z,8.20
2023-04-26T20:56:18.296Z,8.10
2023-04-26T21:01:19.877Z,8.10
2023-04-26T21:06:21.788Z,8.10
2023-04-26T21:11:23.413Z,8.10
2023-04-26T21:16:26.433Z,8.00
2023-04-26T21:21:28.687Z,8.00
2023-04-26T21:26:32.330Z,8.00
2023-04-26T21:31:34.074Z,8.00
2023-04-26T21:36:35.981Z,8.00
2023-04-26T21:41:37.589Z,8.00
2023-04-26T21:46:39.257Z,8.00
2023-04-26T21:51:41.114Z,8.00
2023-04-26T21:56:42.804Z,8.00
2023-04-26T22:01:44.467Z,8.00
2023-04-26T22:06:46.395Z,8.00
2023-04-26T22:11:47.971Z,8.00
2023-04-26T22:16:49.744Z,7.90
2023-04-26T22:21:52.259Z,7.90
2023-04-26T22:26:55.127Z,7.80
2023-04-26T22:31:56.793Z,7.70
2023-04-26T22:37:06.136Z,7.70
2023-04-26T22:42:15.155Z,7.60
2023-04-26T22:47:18.524Z,7.50
2023-04-26T22:52:28.280Z,7.40
2023-04-26T22:57:32.539Z,7.30
2023-04-26T23:02:34.174Z,7.10
2023-04-26T23:07:36.542Z,7.00
2023-04-26T23:12:38.218Z,6.80
2023-04-26T23:17:41.848Z,6.80
2023-04-26T23:22:43.869Z,6.80
2023-04-26T23:27:45.996Z,6.70
2023-04-26T23:32:47.839Z,6.70
2023-04-26T23:37:52.327Z,6.70
2023-04-26T23:42:54.048Z,6.70
2023-04-26T23:47:55.688Z,6.60
2023-04-26T23:52:57.389Z,6.60
2023-04-26T23:57:58.997Z,6.50
